Time;durP1;ratioP1;P1;durP2;ratioP2;P2;SDS_P1;SDS_P2;PMS_P1;PMS_P2;Temp;Humidity;BMP_temperature;BMP_pressure;BME280_temperature;BME280_humidity;BME280_pressure;Samples;Min_cycle;Max_cycle;Signal;HPM_P1;HPM_P2
2022/11/26 00:00:44;;;;;;;49.90;29.20;;;;;;;;;;5033380;28;20028;-68
2022/11/26 00:03:11;;;;;;;48.00;29.30;;;;;;;;;;5032635;28;20029;-69
2022/11/26 00:05:38;;;;;;;49.47;27.67;;;;;;;;;;5033044;28;20061;-69
2022/11/26 00:08:08;;;;;;;49.58;29.30;;;;;;;;;;5031631;28;20110;-67
2022/11/26 00:10:35;;;;;;;50.17;29.95;;;;;;;;;;5032902;28;20033;-68
2022/11/26 00:13:01;;;;;;;53.90;28.52;;;;;;;;;;5032969;28;20367;-70
2022/11/26 00:15:29;;;;;;;51.47;28.42;;;;;;;;;;5032785;28;20151;-68
2022/11/26 00:17:55;;;;;;;53.00;30.17;;;;;;;;;;5031575;28;20033;-69
2022/11/26 00:20:24;;;;;;;46.80;30.35;;;;;;;;;;5031476;28;20022;-68
2022/11/26 00:22:51;;;;;;;49.65;29.67;;;;;;;;;;5031099;28;20025;-69
2022/11/26 00:25:22;;;;;;;46.28;30.30;;;;;;;;;;5047208;28;20051;-69
2022/11/26 00:27:49;;;;;;;54.58;32.25;;;;;;;;;;5051304;28;20465;-68
2022/11/26 00:30:16;;;;;;;47.30;31.73;;;;;;;;;;5052537;28;20112;-68
2022/11/26 00:32:42;;;;;;;53.67;30.57;;;;;;;;;;5052490;28;20017;-69
2022/11/26 00:35:08;;;;;;;54.85;31.33;;;;;;;;;;5052247;28;20259;-70
2022/11/26 00:37:48;;;;;;;53.83;31.30;;;;;;;;;;5050874;28;20029;-68
2022/11/26 00:40:20;;;;;;;52.25;32.42;;;;;;;;;;5044743;28;20051;-68
2022/11/26 00:42:46;;;;;;;50.70;30.30;;;;;;;;;;5052180;28;20096;-68
2022/11/26 00:45:30;;;;;;;50.08;32.40;;;;;;;;;;5051994;28;20465;-68
2022/11/26 00:47:56;;;;;;;61.00;34.88;;;;;;;;;;5052270;28;20028;-68
2022/11/26 00:50:24;;;;;;;57.58;33.25;;;;;;;;;;5052261;28;20017;-68
2022/11/26 00:52:52;;;;;;;61.60;33.50;;;;;;;;;;5051451;28;20036;-68
2022/11/26 00:55:25;;;;;;;58.20;33.00;;;;;;;;;;5051696;28;20477;-68
2022/11/26 00:57:51;;;;;;;59.20;33.55;;;;;;;;;;5051951;28;20108;-70
2022/11/26 01:00:19;;;;;;;64.35;35.30;;;;;;;;;;5050850;28;20041;-70
2022/11/26 01:02:46;;;;;;;56.20;32.53;;;;;;;;;;5051767;28;20024;-71
2022/11/26 01:05:12;;;;;;;61.60;34.25;;;;;;;;;;5051446;28;20064;-68
2022/11/26 01:07:38;;;;;;;72.50;32.22;;;;;;;;;;5051838;28;20108;-67
2022/11/26 01:10:05;;;;;;;62.78;33.75;;;;;;;;;;5051927;28;20103;-69
2022/11/26 01:12:31;;;;;;;67.30;36.25;;;;;;;;;;5051600;28;20495;-69
2022/11/26 01:14:57;;;;;;;71.55;33.10;;;;;;;;;;5050075;28;20052;-68
2022/11/26 01:17:23;;;;;;;66.63;35.25;;;;;;;;;;5051654;28;20057;-69
2022/11/26 01:19:49;;;;;;;92.32;36.42;;;;;;;;;;5050285;28;20500;-69
2022/11/26 01:22:19;;;;;;;69.53;35.00;;;;;;;;;;5051307;28;20043;-69
2022/11/26 01:24:46;;;;;;;66.03;36.75;;;;;;;;;;5033695;28;20030;-68
2022/11/26 01:27:12;;;;;;;81.55;37.15;;;;;;;;;;5031630;28;20026;-69
2022/11/26 01:29:38;;;;;;;62.80;35.63;;;;;;;;;;5030341;28;20128;-68
2022/11/26 01:32:04;;;;;;;58.90;35.80;;;;;;;;;;5030286;28;20112;-69
2022/11/26 01:34:30;;;;;;;62.30;33.80;;;;;;;;;;5032150;28;20026;-69
2022/11/26 01:36:56;;;;;;;81.63;38.38;;;;;;;;;;5033631;28;20557;-68
2022/11/26 01:39:22;;;;;;;63.55;36.25;;;;;;;;;;5051880;28;20063;-68
2022/11/26 01:42:06;;;;;;;58.13;35.10;;;;;;;;;;5051906;28;20047;-69
2022/11/26 01:44:34;;;;;;;86.15;38.60;;;;;;;;;;5050954;28;20035;-68
2022/11/26 01:47:01;;;;;;;56.33;36.75;;;;;;;;;;5050190;28;20028;-65
2022/11/26 01:49:29;;;;;;;69.90;36.33;;;;;;;;;;5051131;28;20121;-66
2022/11/26 01:52:04;;;;;;;65.15;40.55;;;;;;;;;;5051273;28;20029;-66
2022/11/26 01:54:31;;;;;;;76.15;39.83;;;;;;;;;;5050285;28;20104;-66
2022/11/26 01:56:59;;;;;;;76.65;37.65;;;;;;;;;;5049940;28;20025;-69
2022/11/26 01:59:32;;;;;;;64.18;35.08;;;;;;;;;;5051381;28;20029;-68
2022/11/26 02:01:59;;;;;;;68.82;38.70;;;;;;;;;;5049943;28;20199;-68
2022/11/26 02:04:35;;;;;;;64.45;39.13;;;;;;;;;;5050376;28;20032;-68
2022/11/26 02:07:01;;;;;;;64.25;40.60;;;;;;;;;;5050424;28;20056;-69
2022/11/26 02:09:28;;;;;;;76.32;38.22;;;;;;;;;;5051132;28;20025;-69
2022/11/26 02:11:54;;;;;;;72.38;41.15;;;;;;;;;;5050773;28;20484;-68
2022/11/26 02:14:20;;;;;;;64.22;35.63;;;;;;;;;;5050400;28;20029;-67
2022/11/26 02:16:52;;;;;;;60.22;36.47;;;;;;;;;;5050104;28;20073;-68
2022/11/26 02:19:18;;;;;;;68.18;38.00;;;;;;;;;;5049530;28;20021;-68
2022/11/26 02:21:48;;;;;;;60.40;38.70;;;;;;;;;;5049095;28;20032;-68
2022/11/26 02:24:40;;;;;;;56.80;34.70;;;;;;;;;;5049793;28;20025;-68
2022/11/26 02:27:06;;;;;;;59.70;38.88;;;;;;;;;;5027380;28;20033;-69
2022/11/26 02:29:50;;;;;;;60.08;37.90;;;;;;;;;;5050538;28;20091;-69
2022/11/26 02:32:19;;;;;;;59.10;37.42;;;;;;;;;;5048997;28;20151;-69
2022/11/26 02:34:50;;;;;;;56.50;35.90;;;;;;;;;;5050533;28;20107;-69
2022/11/26 02:37:21;;;;;;;52.47;34.30;;;;;;;;;;5050522;28;20527;-68
2022/11/26 02:39:47;;;;;;;57.60;37.00;;;;;;;;;;5050705;28;20075;-69
2022/11/26 02:42:30;;;;;;;60.03;36.65;;;;;;;;;;5049909;28;20050;-68
2022/11/26 02:44:58;;;;;;;53.63;35.28;;;;;;;;;;5050161;28;20052;-68
2022/11/26 02:47:26;;;;;;;52.92;33.50;;;;;;;;;;5049240;28;20020;-67
2022/11/26 02:49:52;;;;;;;56.25;36.80;;;;;;;;;;5043209;28;20055;-70
2022/11/26 02:52:19;;;;;;;55.67;34.38;;;;;;;;;;5030467;28;20032;-67
2022/11/26 02:54:45;;;;;;;60.95;36.97;;;;;;;;;;5035032;28;20029;-68
2022/11/26 02:57:12;;;;;;;60.88;35.72;;;;;;;;;;5049066;28;20108;-69
2022/11/26 02:59:39;;;;;;;54.55;34.88;;;;;;;;;;5050572;28;20466;-69
2022/11/26 03:02:09;;;;;;;57.00;35.78;;;;;;;;;;5049806;28;20028;-69
2022/11/26 03:04:37;;;;;;;71.25;38.95;;;;;;;;;;5049954;28;20389;-69
2022/11/26 03:07:05;;;;;;;66.93;37.35;;;;;;;;;;5050217;28;20533;-70
2022/11/26 03:09:41;;;;;;;70.13;38.78;;;;;;;;;;5050278;28;20068;-69
2022/11/26 03:12:07;;;;;;;83.70;37.80;;;;;;;;;;5048816;28;20078;-68
2022/11/26 03:14:33;;;;;;;88.47;39.53;;;;;;;;;;5049955;28;20119;-68
2022/11/26 03:16:59;;;;;;;84.55;40.95;;;;;;;;;;5051724;28;20048;-68
2022/11/26 03:19:25;;;;;;;90.38;41.20;;;;;;;;;;5053818;28;20489;-68
2022/11/26 03:21:51;;;;;;;78.53;38.70;;;;;;;;;;5052378;28;20021;-66
2022/11/26 03:24:17;;;;;;;78.03;39.47;;;;;;;;;;5052428;28;20033;-68
2022/11/26 03:26:43;;;;;;;77.72;41.22;;;;;;;;;;5053476;28;20028;-69
2022/11/26 03:29:09;;;;;;;83.53;41.13;;;;;;;;;;5053989;28;20187;-68
2022/11/26 03:31:35;;;;;;;116.78;42.67;;;;;;;;;;5053710;28;20026;-69
2022/11/26 03:34:01;;;;;;;83.00;41.28;;;;;;;;;;5052243;28;20065;-69
2022/11/26 03:36:27;;;;;;;75.20;41.95;;;;;;;;;;5036811;28;20036;-68
2022/11/26 03:38:53;;;;;;;87.35;39.88;;;;;;;;;;5033468;28;20022;-68
2022/11/26 03:41:19;;;;;;;91.22;40.33;;;;;;;;;;5033815;28;20516;-68
2022/11/26 03:43:45;;;;;;;78.07;41.33;;;;;;;;;;5033525;28;20022;-69
2022/11/26 03:46:10;;;;;;;81.75;40.55;;;;;;;;;;5033772;28;20029;-68
2022/11/26 03:48:37;;;;;;;92.32;40.08;;;;;;;;;;5033539;28;20113;-69
2022/11/26 03:51:03;;;;;;;110.95;43.50;;;;;;;;;;5033605;28;20033;-69
2022/11/26 03:53:29;;;;;;;80.20;38.67;;;;;;;;;;5031708;28;20027;-69
2022/11/26 03:55:55;;;;;;;82.35;38.60;;;;;;;;;;5032095;28;20453;-68
2022/11/26 03:58:21;;;;;;;102.45;37.67;;;;;;;;;;5033330;28;20048;-69
2022/11/26 04:00:46;;;;;;;99.25;39.72;;;;;;;;;;5031867;28;20319;-70
2022/11/26 04:03:13;;;;;;;102.65;40.03;;;;;;;;;;5032471;28;20026;-69
2022/11/26 04:05:39;;;;;;;101.10;39.85;;;;;;;;;;5049793;28;20025;-68
2022/11/26 04:08:05;;;;;;;86.78;36.50;;;;;;;;;;5035147;28;20021;-68
2022/11/26 04:10:31;;;;;;;75.68;36.13;;;;;;;;;;5034966;28;20025;-68
2022/11/26 04:12:57;;;;;;;81.60;34.72;;;;;;;;;;5052709;28;20027;-68
2022/11/26 04:15:23;;;;;;;78.57;34.88;;;;;;;;;;5052567;28;20017;-68
2022/11/26 04:17:49;;;;;;;109.65;37.70;;;;;;;;;;5052731;28;20021;-68
2022/11/26 04:20:15;;;;;;;84.40;36.15;;;;;;;;;;5052163;28;20083;-68
2022/11/26 04:22:41;;;;;;;107.97;37.75;;;;;;;;;;5052482;28;20084;-69
2022/11/26 04:25:07;;;;;;;81.22;35.63;;;;;;;;;;5052291;28;20473;-69
2022/11/26 04:27:33;;;;;;;119.00;37.38;;;;;;;;;;5051722;28;20029;-68
2022/11/26 04:29:59;;;;;;;123.78;40.58;;;;;;;;;;5052315;28;20029;-69
2022/11/26 04:32:25;;;;;;;70.75;35.97;;;;;;;;;;5052295;28;20103;-68
2022/11/26 04:34:51;;;;;;;82.00;36.72;;;;;;;;;;5052190;28;20025;-68
2022/11/26 04:37:17;;;;;;;73.43;36.75;;;;;;;;;;5051980;28;20401;-68
2022/11/26 04:39:43;;;;;;;93.38;41.60;;;;;;;;;;5050739;28;20021;-68
2022/11/26 04:42:09;;;;;;;67.72;38.03;;;;;;;;;;5052264;28;20036;-69
2022/11/26 04:44:35;;;;;;;119.22;42.05;;;;;;;;;;5050623;28;20516;-69
2022/11/26 04:47:01;;;;;;;75.53;38.42;;;;;;;;;;5052432;28;20021;-69
2022/11/26 04:49:27;;;;;;;76.50;39.55;;;;;;;;;;5051834;28;20028;-68
2022/11/26 04:51:53;;;;;;;101.53;39.25;;;;;;;;;;5052306;28;20032;-69
2022/11/26 04:54:19;;;;;;;96.80;40.53;;;;;;;;;;5050637;28;20025;-67
2022/11/26 04:56:45;;;;;;;74.10;39.17;;;;;;;;;;5050755;28;20064;-69
2022/11/26 04:59:11;;;;;;;66.85;39.67;;;;;;;;;;5041405;28;20022;-68
2022/11/26 05:01:37;;;;;;;67.53;39.50;;;;;;;;;;5032201;28;20095;-68
2022/11/26 05:04:03;;;;;;;69.28;41.50;;;;;;;;;;5031747;28;20083;-68
2022/11/26 05:06:29;;;;;;;87.57;40.60;;;;;;;;;;5031723;28;20077;-67
2022/11/26 05:08:55;;;;;;;79.47;42.10;;;;;;;;;;5030562;28;20371;-68
2022/11/26 05:11:21;;;;;;;78.00;39.92;;;;;;;;;;5030499;28;20428;-68
2022/11/26 05:13:47;;;;;;;75.63;41.25;;;;;;;;;;5030160;28;20021;-68
2022/11/26 05:16:13;;;;;;;78.72;42.10;;;;;;;;;;5030291;28;20041;-68
2022/11/26 05:18:39;;;;;;;66.82;38.08;;;;;;;;;;5031401;28;20025;-69
2022/11/26 05:21:05;;;;;;;70.25;42.03;;;;;;;;;;5035118;28;20032;-68
2022/11/26 05:23:31;;;;;;;73.88;42.85;;;;;;;;;;5042252;23;20502;-65
2022/11/26 05:25:57;;;;;;;78.57;42.33;;;;;;;;;;4995549;28;20033;-65
2022/11/26 05:28:23;;;;;;;74.03;43.67;;;;;;;;;;5013174;28;20029;-65
2022/11/26 05:30:49;;;;;;;65.82;43.53;;;;;;;;;;5012841;28;20034;-63
2022/11/26 05:33:15;;;;;;;69.10;44.10;;;;;;;;;;5012606;28;20100;-65
2022/11/26 05:35:41;;;;;;;62.78;42.80;;;;;;;;;;5011684;28;20490;-65
2022/11/26 05:38:07;;;;;;;70.13;44.67;;;;;;;;;;5012698;28;20029;-65
2022/11/26 05:40:33;;;;;;;64.18;42.42;;;;;;;;;;5012244;28;20048;-65
2022/11/26 05:42:59;;;;;;;83.30;46.20;;;;;;;;;;5012694;28;20072;-62
2022/11/26 05:45:25;;;;;;;74.18;45.13;;;;;;;;;;5012605;28;20402;-66
2022/11/26 05:47:51;;;;;;;75.50;46.25;;;;;;;;;;4996447;28;20057;-65
2022/11/26 05:50:17;;;;;;;84.45;44.70;;;;;;;;;;4993074;28;20402;-65
2022/11/26 05:52:43;;;;;;;83.55;43.75;;;;;;;;;;4991719;28;20018;-65
2022/11/26 05:55:10;;;;;;;86.18;48.20;;;;;;;;;;4998902;28;20018;-65
2022/11/26 05:57:36;;;;;;;91.55;45.33;;;;;;;;;;5012723;28;20026;-65
2022/11/26 06:00:03;;;;;;;74.15;45.72;;;;;;;;;;5012377;28;20052;-65
2022/11/26 06:02:29;;;;;;;116.00;48.97;;;;;;;;;;5012435;28;20101;-64
2022/11/26 06:04:55;;;;;;;82.03;43.72;;;;;;;;;;5012370;28;20479;-64
2022/11/26 06:07:21;;;;;;;106.53;45.70;;;;;;;;;;5012455;28;20068;-65
2022/11/26 06:09:47;;;;;;;87.07;46.08;;;;;;;;;;5010866;28;20029;-64
2022/11/26 06:12:13;;;;;;;108.40;48.42;;;;;;;;;;5012246;28;20018;-65
2022/11/26 06:14:39;;;;;;;99.90;48.67;;;;;;;;;;5010739;28;20068;-62
2022/11/26 06:17:05;;;;;;;104.13;50.97;;;;;;;;;;5010732;28;20099;-64
2022/11/26 06:19:31;;;;;;;87.53;45.85;;;;;;;;;;5009120;28;20077;-65
2022/11/26 06:21:57;;;;;;;93.25;46.05;;;;;;;;;;5004654;28;20105;-65
2022/11/26 06:24:23;;;;;;;85.30;45.50;;;;;;;;;;5010722;28;20117;-64
2022/11/26 06:26:49;;;;;;;87.60;46.40;;;;;;;;;;5012412;28;20026;-65
2022/11/26 06:29:15;;;;;;;95.03;49.70;;;;;;;;;;4999681;28;20535;-63
2022/11/26 06:31:41;;;;;;;95.82;48.00;;;;;;;;;;4991277;28;20038;-62
2022/11/26 06:34:07;;;;;;;80.90;47.83;;;;;;;;;;4990551;28;20081;-65
2022/11/26 06:36:33;;;;;;;97.70;47.15;;;;;;;;;;4991462;28;20470;-63
2022/11/26 06:38:59;;;;;;;105.85;48.17;;;;;;;;;;4992573;28;20026;-65
2022/11/26 06:41:25;;;;;;;84.53;47.65;;;;;;;;;;4992345;28;20464;-64
2022/11/26 06:43:51;;;;;;;96.60;47.78;;;;;;;;;;4991819;28;20623;-64
2022/11/26 06:46:17;;;;;;;80.45;47.67;;;;;;;;;;4992314;28;20084;-64
2022/11/26 06:48:43;;;;;;;74.00;45.70;;;;;;;;;;4992438;28;20402;-65
2022/11/26 06:51:10;;;;;;;74.68;45.78;;;;;;;;;;4995422;28;20133;-65
2022/11/26 06:53:36;;;;;;;81.55;47.47;;;;;;;;;;4996111;28;20026;-64
2022/11/26 06:56:04;;;;;;;80.45;48.53;;;;;;;;;;5007830;28;20093;-65
2022/11/26 06:58:30;;;;;;;84.32;45.72;;;;;;;;;;5015838;28;20022;-63
2022/11/26 07:00:56;;;;;;;95.78;48.40;;;;;;;;;;5015886;28;20018;-61
2022/11/26 07:03:23;;;;;;;89.57;48.28;;;;;;;;;;5015428;28;20054;-64
2022/11/26 07:05:49;;;;;;;92.20;46.25;;;;;;;;;;5015862;28;20080;-65
2022/11/26 07:08:15;;;;;;;94.32;51.53;;;;;;;;;;5015636;28;20028;-63
2022/11/26 07:10:41;;;;;;;91.60;44.78;;;;;;;;;;5015655;28;20065;-64
2022/11/26 07:13:07;;;;;;;106.22;47.97;;;;;;;;;;5015365;28;20033;-65
2022/11/26 07:15:33;;;;;;;101.97;47.53;;;;;;;;;;5015414;28;20034;-65
2022/11/26 07:17:59;;;;;;;95.53;46.92;;;;;;;;;;5014922;28;20093;-65
2022/11/26 07:20:26;;;;;;;104.70;49.20;;;;;;;;;;5002549;28;20026;-65
2022/11/26 07:22:52;;;;;;;110.55;50.22;;;;;;;;;;5009480;28;20116;-65
2022/11/26 07:25:18;;;;;;;84.50;43.17;;;;;;;;;;5013840;28;20558;-64
2022/11/26 07:27:44;;;;;;;79.72;42.83;;;;;;;;;;5014409;28;20022;-64
2022/11/26 07:30:11;;;;;;;73.63;42.60;;;;;;;;;;5015197;28;20474;-67
2022/11/26 07:32:37;;;;;;;68.28;42.78;;;;;;;;;;5014988;28;20494;-65
2022/11/26 07:35:03;;;;;;;82.15;43.88;;;;;;;;;;5014945;28;20022;-65
2022/11/26 07:37:31;;;;;;;88.63;43.95;;;;;;;;;;5014595;28;20026;-64
2022/11/26 07:39:57;;;;;;;68.25;40.70;;;;;;;;;;5014966;28;20441;-65
2022/11/26 07:42:23;;;;;;;71.63;38.70;;;;;;;;;;5013918;28;20026;-66
2022/11/26 07:44:49;;;;;;;82.13;39.17;;;;;;;;;;5013360;28;20573;-65
2022/11/26 07:47:15;;;;;;;65.97;40.97;;;;;;;;;;5013000;28;20391;-65
2022/11/26 07:49:41;;;;;;;61.65;40.15;;;;;;;;;;5015252;28;20578;-65
2022/11/26 07:52:07;;;;;;;69.85;43.80;;;;;;;;;;5014398;28;20026;-63
2022/11/26 07:54:33;;;;;;;69.03;41.45;;;;;;;;;;5014356;28;20390;-65
2022/11/26 07:56:59;;;;;;;63.60;40.72;;;;;;;;;;5014509;28;20109;-64
2022/11/26 07:59:25;;;;;;;61.47;38.38;;;;;;;;;;5014833;28;20109;-66
2022/11/26 08:01:51;;;;;;;46.95;37.33;;;;;;;;;;5012527;28;20018;-66
2022/11/26 08:04:17;;;;;;;67.35;40.47;;;;;;;;;;5014249;28;20030;-66
2022/11/26 08:06:43;;;;;;;50.80;36.97;;;;;;;;;;5014405;28;20113;-66
2022/11/26 08:09:10;;;;;;;67.40;38.03;;;;;;;;;;5013187;28;20474;-61
2022/11/26 08:11:36;;;;;;;55.33;37.97;;;;;;;;;;5014425;28;20030;-61
2022/11/26 08:14:06;;;;;;;54.80;37.75;;;;;;;;;;5010987;28;20506;-59
2022/11/26 08:16:33;;;;;;;56.65;36.45;;;;;;;;;;4994375;28;20558;-61
2022/11/26 08:19:00;;;;;;;55.60;38.13;;;;;;;;;;4994747;28;20238;-64
2022/11/26 08:21:26;;;;;;;51.80;36.95;;;;;;;;;;4997487;28;20491;-61
2022/11/26 08:23:53;;;;;;;41.28;35.20;;;;;;;;;;5013678;28;20505;-61
2022/11/26 08:26:19;;;;;;;49.28;35.08;;;;;;;;;;5014099;28;20738;-60
2022/11/26 08:28:45;;;;;;;57.80;37.72;;;;;;;;;;5014058;28;20022;-59
2022/11/26 08:31:12;;;;;;;54.55;38.17;;;;;;;;;;5013775;28;20490;-61
2022/11/26 08:33:38;;;;;;;49.40;33.35;;;;;;;;;;5012523;28;20030;-60
2022/11/26 08:36:05;;;;;;;48.67;36.88;;;;;;;;;;5014274;28;20061;-59
2022/11/26 08:38:31;;;;;;;46.38;34.58;;;;;;;;;;5012774;28;20044;-60
2022/11/26 08:41:00;;;;;;;49.83;37.10;;;;;;;;;;5012436;28;20554;-60
2022/11/26 08:43:26;;;;;;;50.72;36.53;;;;;;;;;;5012751;28;20030;-58
2022/11/26 08:45:56;;;;;;;45.55;36.03;;;;;;;;;;5013676;28;20036;-65
2022/11/26 08:48:23;;;;;;;49.60;35.05;;;;;;;;;;5013809;28;20048;-62
2022/11/26 08:50:49;;;;;;;44.97;33.30;;;;;;;;;;5012269;28;20032;-59
2022/11/26 08:53:15;;;;;;;46.40;35.25;;;;;;;;;;5013098;28;20024;-62
2022/11/26 08:55:41;;;;;;;45.78;35.22;;;;;;;;;;5012378;28;20064;-57
2022/11/26 08:58:07;;;;;;;53.75;38.15;;;;;;;;;;5013699;28;20056;-60
2022/11/26 09:00:33;;;;;;;52.63;36.05;;;;;;;;;;5013268;28;20048;-56
2022/11/26 09:02:59;;;;;;;50.08;35.95;;;;;;;;;;5011283;28;20045;-59
2022/11/26 09:05:25;;;;;;;51.60;36.58;;;;;;;;;;5004524;28;20026;-60
2022/11/26 09:07:52;;;;;;;49.67;36.97;;;;;;;;;;5002850;28;20053;-60
2022/11/26 09:10:18;;;;;;;59.38;36.80;;;;;;;;;;5002564;28;20061;-61
2022/11/26 09:12:44;;;;;;;46.90;34.20;;;;;;;;;;5011600;28;20034;-61
2022/11/26 09:15:10;;;;;;;50.00;36.67;;;;;;;;;;5012942;28;20401;-59
2022/11/26 09:17:37;;;;;;;44.75;33.35;;;;;;;;;;5012794;28;20109;-61
2022/11/26 09:20:03;;;;;;;47.60;35.67;;;;;;;;;;5013054;28;20028;-62
2022/11/26 09:22:29;;;;;;;47.88;32.58;;;;;;;;;;5012607;28;20032;-63
2022/11/26 09:24:55;;;;;;;45.97;32.70;;;;;;;;;;5012922;28;20118;-63
2022/11/26 09:27:21;;;;;;;44.00;31.85;;;;;;;;;;5013075;28;20057;-63
2022/11/26 09:29:47;;;;;;;51.88;32.47;;;;;;;;;;5012982;28;20371;-64
2022/11/26 09:32:13;;;;;;;46.38;32.78;;;;;;;;;;5012850;28;20030;-60
2022/11/26 09:34:40;;;;;;;38.50;29.35;;;;;;;;;;5012521;28;20104;-61
2022/11/26 09:37:06;;;;;;;45.35;33.42;;;;;;;;;;5012429;28;20053;-61
2022/11/26 09:39:32;;;;;;;41.05;30.95;;;;;;;;;;5012079;28;20037;-61
2022/11/26 09:42:05;;;;;;;45.47;31.25;;;;;;;;;;5012917;28;20064;-60
2022/11/26 09:44:37;;;;;;;47.65;31.77;;;;;;;;;;5012529;28;20110;-59
2022/11/26 09:47:15;;;;;;;41.20;30.55;;;;;;;;;;5013238;28;20026;-63
2022/11/26 09:50:20;;;;;;;43.17;29.02;;;;;;;;;;5014069;28;20068;-65
2022/11/26 09:52:49;;;;;;;44.88;29.23;;;;;;;;;;4991485;28;20058;-62
2022/11/26 09:55:20;;;;;;;42.53;29.50;;;;;;;;;;4991210;28;20065;-63
2022/11/26 09:57:54;;;;;;;38.42;27.50;;;;;;;;;;5001852;28;20449;-61
2022/11/26 10:00:20;;;;;;;42.90;28.50;;;;;;;;;;5012635;28;20399;-59
2022/11/26 10:02:46;;;;;;;34.67;25.58;;;;;;;;;;5011241;28;20026;-62
2022/11/26 10:05:12;;;;;;;35.70;27.10;;;;;;;;;;5012437;28;20029;-62
2022/11/26 10:07:41;;;;;;;38.53;27.67;;;;;;;;;;5012907;28;20025;-62
2022/11/26 10:10:15;;;;;;;41.15;28.73;;;;;;;;;;5012687;28;20022;-62
2022/11/26 10:12:41;;;;;;;44.75;27.17;;;;;;;;;;5013034;28;20048;-63
2022/11/26 10:15:10;;;;;;;45.33;25.52;;;;;;;;;;5012044;28;20069;-57
2022/11/26 10:17:42;;;;;;;35.88;23.48;;;;;;;;;;5012068;28;20045;-62
2022/11/26 10:20:26;;;;;;;37.85;23.55;;;;;;;;;;5011994;28;20043;-60
2022/11/26 10:22:52;;;;;;;40.00;23.50;;;;;;;;;;5011685;28;20034;-60
2022/11/26 10:25:20;;;;;;;32.53;23.98;;;;;;;;;;5011084;28;20022;-64
2022/11/26 10:27:48;;;;;;;39.25;25.27;;;;;;;;;;5011991;28;20022;-64
2022/11/26 10:30:27;;;;;;;39.03;23.20;;;;;;;;;;5011857;28;20586;-61
2022/11/26 10:32:54;;;;;;;39.80;24.08;;;;;;;;;;5011802;28;20033;-59
2022/11/26 10:35:26;;;;;;;34.03;23.48;;;;;;;;;;4996665;28;20034;-59
2022/11/26 10:37:53;;;;;;;39.83;23.40;;;;;;;;;;4990782;28;20058;-60
2022/11/26 10:40:24;;;;;;;32.33;21.67;;;;;;;;;;4991315;28;20034;-61
2022/11/26 10:43:11;;;;;;;37.85;24.45;;;;;;;;;;4992112;28;20101;-59
2022/11/26 10:45:41;;;;;;;34.33;20.92;;;;;;;;;;4991839;28;20026;-60
2022/11/26 10:48:28;;;;;;;35.53;19.75;;;;;;;;;;4991908;28;20032;-61
2022/11/26 10:50:54;;;;;;;39.47;20.30;;;;;;;;;;4974751;28;20442;-61
2022/11/26 10:53:21;;;;;;;30.15;19.98;;;;;;;;;;4991771;28;20105;-63
2022/11/26 10:55:47;;;;;;;34.85;21.17;;;;;;;;;;4992190;28;20037;-63
2022/11/26 10:58:18;;;;;;;38.50;20.70;;;;;;;;;;4992087;28;20031;-63
2022/11/26 11:00:47;;;;;;;35.55;20.00;;;;;;;;;;4991960;28;20022;-60
2022/11/26 11:03:34;;;;;;;29.17;19.27;;;;;;;;;;5005623;28;20498;-64
2022/11/26 11:06:24;;;;;;;30.75;18.35;;;;;;;;;;5011577;28;20100;-61
2022/11/26 11:08:52;;;;;;;37.17;19.60;;;;;;;;;;5011800;28;20521;-63
2022/11/26 11:11:21;;;;;;;30.23;18.70;;;;;;;;;;5011816;28;20041;-61
2022/11/26 11:13:48;;;;;;;33.95;19.42;;;;;;;;;;5010008;28;20079;-61
2022/11/26 11:16:15;;;;;;;34.58;18.02;;;;;;;;;;5010183;28;20026;-64
2022/11/26 11:18:53;;;;;;;33.70;18.55;;;;;;;;;;5011504;28;20080;-63
2022/11/26 11:21:20;;;;;;;33.92;18.40;;;;;;;;;;5011319;28;20041;-63
2022/11/26 11:23:46;;;;;;;39.03;20.02;;;;;;;;;;5011031;28;20041;-63
2022/11/26 11:26:16;;;;;;;30.38;18.02;;;;;;;;;;5011317;28;20022;-60
2022/11/26 11:28:46;;;;;;;33.05;17.13;;;;;;;;;;5011607;28;20087;-65
2022/11/26 11:31:13;;;;;;;35.95;17.60;;;;;;;;;;4996478;28;20042;-62
2022/11/26 11:33:39;;;;;;;31.58;17.50;;;;;;;;;;4991442;28;20031;-62
2022/11/26 11:36:14;;;;;;;36.75;18.17;;;;;;;;;;4991833;28;20124;-63
2022/11/26 11:38:51;;;;;;;33.13;16.80;;;;;;;;;;4995488;28;20026;-61
2022/11/26 11:41:42;;;;;;;32.50;16.05;;;;;;;;;;5002409;28;20387;-62
2022/11/26 11:44:11;;;;;;;33.60;16.58;;;;;;;;;;5014946;28;20049;-63
2022/11/26 11:46:51;;;;;;;32.40;17.23;;;;;;;;;;5015189;28;20041;-63
2022/11/26 11:49:35;;;;;;;38.38;18.63;;;;;;;;;;4664787;28;10000176;-67
2022/11/26 11:52:21;;;;;;;26.63;15.82;;;;;;;;;;4994463;28;20034;-62
2022/11/26 11:55:13;;;;;;;33.03;15.85;;;;;;;;;;5011167;28;20021;-63
2022/11/26 11:57:58;;;;;;;28.45;16.50;;;;;;;;;;5008985;28;20625;-63
2022/11/26 12:00:30;;;;;;;30.23;16.13;;;;;;;;;;4993597;28;20019;-64
2022/11/26 12:03:08;;;;;;;30.77;16.80;;;;;;;;;;4992852;28;20486;-66
2022/11/26 12:05:34;;;;;;;34.00;15.93;;;;;;;;;;4994241;28;20030;-61
2022/11/26 12:08:10;;;;;;;34.13;16.38;;;;;;;;;;5012012;28;20072;-62
2022/11/26 12:10:54;;;;;;;30.38;16.90;;;;;;;;;;5010717;28;20737;-63
2022/11/26 12:13:21;;;;;;;31.75;15.65;;;;;;;;;;5011540;28;20037;-65
2022/11/26 12:15:47;;;;;;;28.83;15.52;;;;;;;;;;5010935;28;20098;-65
2022/11/26 12:18:16;;;;;;;30.95;15.02;;;;;;;;;;5012725;28;20068;-64
2022/11/26 12:21:02;;;;;;;29.85;15.65;;;;;;;;;;5012387;28;20380;-62
2022/11/26 12:23:31;;;;;;;32.63;16.55;;;;;;;;;;5006080;28;20084;-58
2022/11/26 12:26:06;;;;;;;31.40;15.68;;;;;;;;;;5009043;28;20530;-62
2022/11/26 12:28:46;;;;;;;30.00;14.60;;;;;;;;;;4994838;28;20019;-62
2022/11/26 12:31:22;;;;;;;28.20;15.60;;;;;;;;;;4997435;28;20026;-61
2022/11/26 12:33:52;;;;;;;27.67;14.82;;;;;;;;;;5000235;28;20049;-61
2022/11/26 12:36:28;;;;;;;31.65;15.75;;;;;;;;;;5002516;28;20026;-63
2022/11/26 12:39:17;;;;;;;34.72;15.95;;;;;;;;;;5015554;28;20018;-63
2022/11/26 12:41:45;;;;;;;33.28;14.57;;;;;;;;;;5013833;28;20027;-62
2022/11/26 12:44:24;;;;;;;31.45;14.30;;;;;;;;;;5011048;28;20018;-61
2022/11/26 12:47:09;;;;;;;25.65;13.77;;;;;;;;;;5006242;28;20029;-64
2022/11/26 12:49:41;;;;;;;28.27;14.43;;;;;;;;;;5007823;28;20037;-61
2022/11/26 12:52:13;;;;;;;27.00;14.40;;;;;;;;;;5002420;28;20034;-62
2022/11/26 12:54:49;;;;;;;29.80;14.65;;;;;;;;;;4999839;28;20042;-60
2022/11/26 12:57:44;;;;;;;32.83;14.48;;;;;;;;;;4993860;28;20468;-63
2022/11/26 13:00:15;;;;;;;29.80;15.30;;;;;;;;;;4624436;28;9999692;-61
2022/11/26 13:02:45;;;;;;;32.63;19.88;;;;;;;;;;5010051;28;20030;-60
2022/11/26 13:05:23;;;;;;;32.90;18.75;;;;;;;;;;5009667;28;20037;-63
2022/11/26 13:08:05;;;;;;;29.90;16.23;;;;;;;;;;5010988;28;20036;-61
2022/11/26 13:10:49;;;;;;;29.90;15.70;;;;;;;;;;5009707;28;20034;-64
2022/11/26 13:13:15;;;;;;;30.05;15.32;;;;;;;;;;5010338;28;20034;-64
2022/11/26 13:15:53;;;;;;;32.95;15.30;;;;;;;;;;5011072;28;20088;-63
2022/11/26 13:18:41;;;;;;;24.85;13.50;;;;;;;;;;5010281;28;20099;-65
2022/11/26 13:21:16;;;;;;;36.53;14.33;;;;;;;;;;5003811;28;20029;-63
2022/11/26 13:23:45;;;;;;;30.10;14.93;;;;;;;;;;5002425;28;20287;-63
2022/11/26 13:26:14;;;;;;;32.53;14.40;;;;;;;;;;5000626;28;20536;-62
2022/11/26 13:28:59;;;;;;;37.58;15.43;;;;;;;;;;4999942;28;20534;-62
2022/11/26 13:31:40;;;;;;;30.80;13.80;;;;;;;;;;5001048;28;20025;-62
2022/11/26 13:34:06;;;;;;;28.40;13.05;;;;;;;;;;5003256;28;20467;-62
2022/11/26 13:36:44;;;;;;;28.05;13.02;;;;;;;;;;4999169;28;20046;-65
2022/11/26 13:39:26;;;;;;;28.30;12.63;;;;;;;;;;4998506;28;20109;-62
2022/11/26 13:41:52;;;;;;;28.38;13.55;;;;;;;;;;4991234;28;20431;-62
2022/11/26 13:44:26;;;;;;;42.70;13.70;;;;;;;;;;4992372;28;20037;-63
2022/11/26 13:46:52;;;;;;;31.45;12.35;;;;;;;;;;4998489;28;20130;-62
2022/11/26 13:49:18;;;;;;;28.98;12.75;;;;;;;;;;5009533;28;20232;-63
2022/11/26 13:52:14;;;;;;;27.58;12.73;;;;;;;;;;5010943;28;20415;-65
2022/11/26 13:54:52;;;;;;;24.90;12.50;;;;;;;;;;5001339;28;20053;-65
2022/11/26 13:57:20;;;;;;;22.75;13.35;;;;;;;;;;4991428;28;20674;-63
2022/11/26 13:59:51;;;;;;;26.65;11.63;;;;;;;;;;4990639;28;20484;-65
2022/11/26 14:02:40;;;;;;;27.80;12.23;;;;;;;;;;4991554;28;20053;-65
2022/11/26 14:05:08;;;;;;;26.70;12.50;;;;;;;;;;4991275;28;20014;-62
2022/11/26 14:07:34;;;;;;;22.20;10.95;;;;;;;;;;4990601;28;20034;-62
2022/11/26 14:10:01;;;;;;;25.95;11.80;;;;;;;;;;4992779;28;20034;-61
2022/11/26 14:12:46;;;;;;;32.55;13.93;;;;;;;;;;4992718;28;20372;-62
2022/11/26 14:15:30;;;;;;;24.73;11.43;;;;;;;;;;4992139;28;20165;-62
2022/11/26 14:17:57;;;;;;;27.65;11.85;;;;;;;;;;4992538;28;20019;-61
2022/11/26 14:20:23;;;;;;;26.83;12.18;;;;;;;;;;4992391;28;20479;-63
2022/11/26 14:22:49;;;;;;;28.70;12.35;;;;;;;;;;5011550;28;20108;-61
2022/11/26 14:25:15;;;;;;;24.80;11.93;;;;;;;;;;5010785;28;20022;-62
2022/11/26 14:28:04;;;;;;;23.98;11.52;;;;;;;;;;5010642;28;20040;-63